Flight Track Log - Related Links

Times and Time Zones

All times are in EDT time to prevent confusion due to time zone crossing. See the DAL2205 flight status page for this flight to view local times or setup timezone preferences in your user account.

Time Position Orientation Groundspeed Altitude Reporting Facility
EDT Latitude Longitude Course Direction KTS MPH feet Rate Location/Type
Wed 10:29:38 PM 33.6500 -84.5000 234° Southwest 222 255 3,200  Level Atlanta TRACON
Wed 10:30:38 PM 33.6667 -84.5833 284° West 256 295 6,500 3,100 Climbing Atlanta TRACON
Wed 10:31:38 PM 33.6833 -84.6667 284° West 278 320 9,400 2,286 Climbing Atlanta TRACON
Wed 10:32:44 PM 33.7000 -84.7667 281° West 314 361 11,300 1,757 Climbing Atlanta TRACON
Wed 10:33:00 PM 33.7430 -84.6657 234° Southwest  Level FlightAware Approximate
Wed 10:33:58 PM 33.6369 -84.8922 239° Southwest 397 457 13,500  Level Atlanta Center
Wed 10:34:00 PM 33.6701 -84.7840 234° Southwest  Level FlightAware Approximate
Wed 10:34:57 PM 33.5797 -85.0089 240° Southwest 407 468 16,100  Level Atlanta Center
Wed 10:35:57 PM 33.5158 -85.1353 239° Southwest 407 468 18,400 2,200 Climbing Atlanta Center
Wed 10:36:57 PM 33.4647 -85.2639 245° Southwest 414 476 20,500 2,050 Climbing Atlanta Center
Wed 10:37:57 PM 33.4028 -85.3900 240° Southwest 428 493 22,500 2,050 Climbing Atlanta Center
Wed 10:38:57 PM 33.3139 -85.4956 225° Southwest 441 507 24,600 2,182 Climbing Atlanta Center
Wed 10:39:58 PM 33.2292 -85.6058 227° Southwest 447 514 26,900 2,000 Climbing Atlanta Center
Wed 10:40:57 PM 33.1442 -85.7133 227° Southwest 452 520 28,600 1,513 Climbing Atlanta Center
Wed 10:41:57 PM 33.0592 -85.8233 227° Southwest 452 520 29,900 700 Climbing Atlanta Center
Wed 10:42:57 PM 32.9739 -85.9331 227° Southwest 452 520 30,000 50 Climbing Atlanta Center
Wed 10:43:57 PM 32.8889 -86.0450 228° Southwest 462 532 30,000  Level Atlanta Center
Wed 10:44:57 PM 32.8014 -86.1517 226° Southwest 462 532 30,000  Level Atlanta Center
Wed 10:45:57 PM 32.7139 -86.2633 227° Southwest 462 532 30,000  Level Atlanta Center
Wed 10:46:57 PM 32.6283 -86.3719 227° Southwest 462 532 30,000  Level Atlanta Center
Wed 10:47:57 PM 32.5406 -86.4831 227° Southwest 462 532 30,000  Level Atlanta Center
Wed 10:48:57 PM 32.4611 -86.5967 230° Southwest 462 532 30,000  Level Atlanta Center
Wed 10:49:57 PM 32.3714 -86.6997 224° Southwest 457 526 30,000  Level Atlanta Center
Wed 10:50:57 PM 32.2897 -86.7956 225° Southwest 457 526 30,000  Level Atlanta Center
Wed 10:51:57 PM 32.2019 -86.9008 225° Southwest 457 526 30,000  Level Atlanta Center
Wed 10:52:57 PM 32.1158 -87.0083 227° Southwest 457 526 30,000  Level Atlanta Center
Wed 10:53:57 PM 32.0278 -87.1133 225° Southwest 457 526 30,000  Level Atlanta Center
Wed 10:54:57 PM 31.9417 -87.2181 226° Southwest 457 526 30,000 -683 Level Atlanta Center
Wed 10:56:44 PM 31.7822 -87.4122 226° Southwest 439 505 28,100 -714 Descending Houston Center
Wed 10:57:45 PM 31.6939 -87.5167 225° Southwest 448 516 28,000 -49 Descending Houston Center
Wed 10:58:46 PM 31.6058 -87.6253 226° Southwest 457 526 28,000  Level Houston Center
Wed 10:59:47 PM 31.5167 -87.7314 225° Southwest 458 527 28,000  Level Houston Center
Wed 11:00:48 PM 31.4286 -87.8392 226° Southwest 459 528 28,000 -295 Level Houston Center
Wed 11:01:49 PM 31.3403 -87.9461 226° Southwest 458 527 27,400 -1,721 Descending Houston Center
Wed 11:02:50 PM 31.2528 -88.0517 226° Southwest 456 525 24,500 -1,672 Descending Houston Center
Wed 11:03:51 PM 31.1686 -88.1511 225° Southwest 434 499 24,000 -934 Descending Houston Center
Wed 11:04:52 PM 31.0850 -88.2522 226° Southwest 425 489 22,600 -2,508 Descending Houston Center
Wed 11:05:53 PM 31.0119 -88.3669 233° Southwest 402 463 18,900 -3,197 Descending Houston Center
Wed 11:06:54 PM 30.9475 -88.4650 233° Southwest 386 444 16,100 -2,803 Descending Houston Center
Wed 11:07:55 PM 30.8856 -88.5586 232° Southwest 368 423 13,200 -2,361 Descending Houston Center
Wed 11:08:56 PM 30.8264 -88.6497 233° Southwest 357 411 11,300 -1,377 Descending Houston Center
Wed 11:09:57 PM 30.7703 -88.7303 231° Southwest 324 373 10,400 -1,279 Descending Houston Center
Wed 11:10:58 PM 30.7214 -88.8064 233° Southwest 300 345 8,700 -1,820 Descending Houston Center
Wed 11:11:59 PM 30.6719 -88.8794 232° Southwest 290 334 6,700 -2,083 Descending Houston Center
Wed 11:12:59 PM 30.6208 -88.9586 233° Southwest 278 320 4,500 -1,785 Descending Houston Center
Wed 11:14:00 PM 30.5783 -89.0300 235° Southwest 271 312 3,100 -1,082 Descending Houston Center
Wed 11:15:01 PM 30.5600 -89.0944 252° West 218 251 2,300 -541 Descending Houston Center
Wed 11:16:02 PM 30.5439 -89.1528 252° West 195 224 2,000 -148 Descending Houston Center
Wed 11:17:03 PM 30.5706 -89.1764 323° Northwest 182 209 2,000  Level Houston Center
Wed 11:18:04 PM 30.5436 -89.1517 142° Southeast 167 192 2,000  Level Houston Center

Login

Don't have an account? Register now (free) for customized features, flight alerts, and more!